Dixie Pine, Mississippi
Current Conditions -  °F | °C
As of 5:53 PM on Saturday 22 Nov 2014 (Local Time) from KHBG Reporting Station
Overcast Overcast  
Wind Chill: 65°   Ceiling: 2800
Heat Index: 65°   Visibility: 10mi
Dew Point: 54°   Wind: 7mph
Humidity: 68%   Direction: 110°ESE
Pressure: 30.07"   Gusts: NA
Location:  31.1996°N, 89.2694°W
Report Text: KHBG 222353Z AUTO 11006KT 10SM OVC028 18/12 A3007 RMK AO2 SLP182 T01830122 10211 20178 56012
Loading
Personal Weather Stations






























Interactive Weather Map New forecast layout! Learn more

10-Day Weather Forecast

Advertisements
Track Severe Weather on mobile